Aérodrome :
LOGIN :

S'inscrire | Disclaimer

   EN    FR    IT 

 










Légende :    VFR   VFR Marginal   IFR   IFR Intensif   IFR Très Intensif
Visi : 
Plafond : 
>= 8 km
>= 3000ft
5 à 8 km
1000 à 3000 ft
1500m à 5 km
500 à 1000 ft
800 à 1500m
200 à 500 ft
< 800m
< 200 ft
Symboles :   Orages  Brouillard  Fortes neiges  Fortes précipitations  Vent > 20 kt
SIGMETs :   Divers  Orages  Givrage  Turbulence  Onde Orograph.  Cendres Volcan.







- Altitude de l'aérodrome : 16 ft
- Code IATA : AAE


DABB - Annaba-Rabah Bitat

DERNIER METAR :
  • 101730Z 27004KT 230V330 9999 FEW016 SCT030 15/10 Q1025

METARs EXPIRÉS :
  • 101700Z 34013KT 9999 FEW016 SCT030 16/11 Q1025
  • 101630Z 34012KT 9999 FEW020 SCT030 16/11 Q1024
  • 101600Z 33010KT 9999 FEW020 SCT030 16/11 Q1024
  • 101530Z 34012KT 9999 FEW020 SCT030 16/11 Q1024
  • 101500Z 34011KT 9999 FEW020 SCT030 17/11 Q1024

TAF TAF DABB
Valide du 10 à 18h jusqu'au 11 à 18h UTC


101700Z 1018/1118 31015KT 9999 FEW026 BKN030
TEMPO 1018/1024 32016G30KT FEW020TCU
PROB30
TEMPO 1019/1022 5000 -RA
BECMG 1021/1024 24009KT
PROB40
TEMPO 1100/1108 2000 -RA BR BKN008
BECMG 1109/1112 30012KT
Pas de NOTAMs connus pour ce terrain.



MET'MAP, la Météo Aéronautique d'un coup d'oeil ! - Copyright ORBIFLY Décembre 2007 - Disclaimer

ORBIFLY MET'MAP TEAM :

Programmation & Développement : Alexandra Zaïnal
Conception & Développement : Baudouin d'Aumeries
Co-Programmation & Développement : Marc-Olivier Méhu
Soutien technique & logistique : Manuel Goepfert

Contact : metmap@orbifly.com




SOURCES & CREDITS :

   NOAA